Trade Lake, Wisconsin
Current Conditions -  °F | °C
As of 3:35 AM on Sunday 26 Oct 2014 (Local Time) from KRZN Reporting Station
Clear Clear  
Wind Chill: 33°   Ceiling: Unl
Heat Index: 33°   Visibility: 10mi
Dew Point: 27°   Wind: 0mph
Humidity: 79%   Direction: NA
Pressure: 30.01"   Gusts: NA
Location:  45.6678°N, 92.363°W
Report Text: KRZN 260835Z AUTO 00000KT 10SM CLR 01/M03 A3001 RMK AO2 T00071026
Loading
Personal Weather Stations






























Interactive Weather Map New forecast layout! Learn more

10-Day Weather Forecast

Advertisements
Track Severe Weather on mobile